sensor_id;sensor_type;location;lat;lon;timestamp;temperature;humidity
75091;DHT22;63674;48.048;8.306;2023-04-25T00:01:26;5.70;99.90
75091;DHT22;63674;48.048;8.306;2023-04-25T00:03:55;5.70;99.90
75091;DHT22;63674;48.048;8.306;2023-04-25T00:06:24;5.70;99.90
75091;DHT22;63674;48.048;8.306;2023-04-25T00:08:55;5.70;99.90
75091;DHT22;63674;48.048;8.306;2023-04-25T00:11:24;5.70;99.90
75091;DHT22;63674;48.048;8.306;2023-04-25T00:13:52;5.80;99.90
75091;DHT22;63674;48.048;8.306;2023-04-25T00:16:21;5.70;99.90
75091;DHT22;63674;48.048;8.306;2023-04-25T00:18:51;5.70;99.90
75091;DHT22;63674;48.048;8.306;2023-04-25T00:21:21;5.80;99.90
75091;DHT22;63674;48.048;8.306;2023-04-25T00:23:52;5.80;99.90
75091;DHT22;63674;48.048;8.306;2023-04-25T00:26:22;5.70;99.90
75091;DHT22;63674;48.048;8.306;2023-04-25T00:28:52;5.70;99.90
75091;DHT22;63674;48.048;8.306;2023-04-25T00:31:20;5.70;99.90
75091;DHT22;63674;48.048;8.306;2023-04-25T00:33:49;5.60;99.90
75091;DHT22;63674;48.048;8.306;2023-04-25T00:36:18;5.60;99.90
75091;DHT22;63674;48.048;8.306;2023-04-25T00:38:46;5.60;99.90
75091;DHT22;63674;48.048;8.306;2023-04-25T00:41:15;5.60;99.90
75091;DHT22;63674;48.048;8.306;2023-04-25T00:43:46;5.70;99.90
75091;DHT22;63674;48.048;8.306;2023-04-25T00:46:16;5.70;99.90
75091;DHT22;63674;48.048;8.306;2023-04-25T00:48:45;5.80;99.90
75091;DHT22;63674;48.048;8.306;2023-04-25T00:51:16;5.70;99.90
75091;DHT22;63674;48.048;8.306;2023-04-25T00:53:48;5.60;99.90
75091;DHT22;63674;48.048;8.306;2023-04-25T00:56:18;5.50;99.90
75091;DHT22;63674;48.048;8.306;2023-04-25T00:58:50;5.50;99.90
75091;DHT22;63674;48.048;8.306;2023-04-25T01:01:20;5.40;99.90
75091;DHT22;63674;48.048;8.306;2023-04-25T01:03:49;5.40;99.90
75091;DHT22;63674;48.048;8.306;2023-04-25T01:06:18;5.40;99.90
75091;DHT22;63674;48.048;8.306;2023-04-25T01:08:47;5.40;99.90
75091;DHT22;63674;48.048;8.306;2023-04-25T01:11:16;5.40;99.90
75091;DHT22;63674;48.048;8.306;2023-04-25T01:13:45;5.30;99.90
75091;DHT22;63674;48.048;8.306;2023-04-25T01:16:16;5.40;99.90
75091;DHT22;63674;48.048;8.306;2023-04-25T01:18:45;5.40;99.90
75091;DHT22;63674;48.048;8.306;2023-04-25T01:21:16;5.40;99.90
75091;DHT22;63674;48.048;8.306;2023-04-25T01:23:45;5.40;99.90
75091;DHT22;63674;48.048;8.306;2023-04-25T01:26:14;5.40;99.90
75091;DHT22;63674;48.048;8.306;2023-04-25T01:28:45;5.30;99.90
75091;DHT22;63674;48.048;8.306;2023-04-25T01:31:14;5.30;99.90
75091;DHT22;63674;48.048;8.306;2023-04-25T01:33:44;5.20;99.90
75091;DHT22;63674;48.048;8.306;2023-04-25T01:36:13;5.20;99.90
75091;DHT22;63674;48.048;8.306;2023-04-25T01:38:44;5.20;99.90
75091;DHT22;63674;48.048;8.306;2023-04-25T01:41:14;5.20;99.90
75091;DHT22;63674;48.048;8.306;2023-04-25T01:43:44;5.20;99.90
75091;DHT22;63674;48.048;8.306;2023-04-25T01:46:13;5.20;99.90
75091;DHT22;63674;48.048;8.306;2023-04-25T01:48:42;5.20;99.90
75091;DHT22;63674;48.048;8.306;2023-04-25T01:51:12;5.20;99.90
75091;DHT22;63674;48.048;8.306;2023-04-25T01:53:42;5.30;99.90
75091;DHT22;63674;48.048;8.306;2023-04-25T01:56:11;5.20;99.90
75091;DHT22;63674;48.048;8.306;2023-04-25T01:58:40;5.20;99.90
75091;DHT22;63674;48.048;8.306;2023-04-25T02:01:08;5.10;99.90
75091;DHT22;63674;48.048;8.306;2023-04-25T02:03:37;5.00;99.90
75091;DHT22;63674;48.048;8.306;2023-04-25T02:06:06;4.90;99.90
75091;DHT22;63674;48.048;8.306;2023-04-25T02:08:35;4.90;99.90
75091;DHT22;63674;48.048;8.306;2023-04-25T02:11:05;4.90;99.90
75091;DHT22;63674;48.048;8.306;2023-04-25T02:13:34;4.90;99.90
75091;DHT22;63674;48.048;8.306;2023-04-25T02:16:03;4.80;99.90
75091;DHT22;63674;48.048;8.306;2023-04-25T02:18:31;4.70;99.90
75091;DHT22;63674;48.048;8.306;2023-04-25T02:21:00;4.60;99.90
75091;DHT22;63674;48.048;8.306;2023-04-25T02:23:29;4.30;99.90
75091;DHT22;63674;48.048;8.306;2023-04-25T02:25:58;4.30;99.90
75091;DHT22;63674;48.048;8.306;2023-04-25T02:28:28;4.20;99.90
75091;DHT22;63674;48.048;8.306;2023-04-25T02:30:57;4.00;99.90
75091;DHT22;63674;48.048;8.306;2023-04-25T02:33:25;3.90;99.90
75091;DHT22;63674;48.048;8.306;2023-04-25T02:35:54;3.70;99.90
75091;DHT22;63674;48.048;8.306;2023-04-25T02:38:22;3.70;99.90
75091;DHT22;63674;48.048;8.306;2023-04-25T02:40:50;3.70;99.90
75091;DHT22;63674;48.048;8.306;2023-04-25T02:43:19;3.50;99.90
75091;DHT22;63674;48.048;8.306;2023-04-25T02:45:50;3.50;99.90
75091;DHT22;63674;48.048;8.306;2023-04-25T02:48:18;3.60;99.90
75091;DHT22;63674;48.048;8.306;2023-04-25T02:50:47;3.70;99.90
75091;DHT22;63674;48.048;8.306;2023-04-25T02:53:15;3.70;99.90
75091;DHT22;63674;48.048;8.306;2023-04-25T02:55:44;3.80;99.90
75091;DHT22;63674;48.048;8.306;2023-04-25T02:58:13;3.90;99.90
75091;DHT22;63674;48.048;8.306;2023-04-25T03:00:42;4.00;99.90
75091;DHT22;63674;48.048;8.306;2023-04-25T03:03:12;4.00;99.90
75091;DHT22;63674;48.048;8.306;2023-04-25T03:05:41;4.10;99.90
75091;DHT22;63674;48.048;8.306;2023-04-25T03:08:10;4.20;99.90
75091;DHT22;63674;48.048;8.306;2023-04-25T03:10:39;4.30;99.90
75091;DHT22;63674;48.048;8.306;2023-04-25T03:13:08;4.30;99.90
75091;DHT22;63674;48.048;8.306;2023-04-25T03:15:36;4.30;99.90
75091;DHT22;63674;48.048;8.306;2023-04-25T03:18:05;4.20;99.90
75091;DHT22;63674;48.048;8.306;2023-04-25T03:20:35;4.30;99.90
75091;DHT22;63674;48.048;8.306;2023-04-25T03:23:03;4.30;99.90
75091;DHT22;63674;48.048;8.306;2023-04-25T03:25:32;4.30;99.90
75091;DHT22;63674;48.048;8.306;2023-04-25T03:28:00;4.40;99.90
75091;DHT22;63674;48.048;8.306;2023-04-25T03:30:29;4.40;99.90
75091;DHT22;63674;48.048;8.306;2023-04-25T03:32:57;4.40;99.90
75091;DHT22;63674;48.048;8.306;2023-04-25T03:35:26;4.40;99.90
75091;DHT22;63674;48.048;8.306;2023-04-25T03:37:56;4.40;99.90
75091;DHT22;63674;48.048;8.306;2023-04-25T03:40:25;4.30;99.90
75091;DHT22;63674;48.048;8.306;2023-04-25T03:42:53;4.20;99.90
75091;DHT22;63674;48.048;8.306;2023-04-25T03:45:22;4.20;99.90
75091;DHT22;63674;48.048;8.306;2023-04-25T03:47:50;4.00;99.90
75091;DHT22;63674;48.048;8.306;2023-04-25T03:50:19;4.00;99.90
75091;DHT22;63674;48.048;8.306;2023-04-25T03:52:48;3.80;99.90
75091;DHT22;63674;48.048;8.306;2023-04-25T03:55:18;3.80;99.90
75091;DHT22;63674;48.048;8.306;2023-04-25T03:57:47;3.80;99.90
75091;DHT22;63674;48.048;8.306;2023-04-25T04:00:16;3.80;99.90
75091;DHT22;63674;48.048;8.306;2023-04-25T04:02:45;3.90;99.90
75091;DHT22;63674;48.048;8.306;2023-04-25T04:05:14;4.00;99.90
75091;DHT22;63674;48.048;8.306;2023-04-25T04:07:42;4.00;99.90
75091;DHT22;63674;48.048;8.306;2023-04-25T04:10:11;3.90;99.90
75091;DHT22;63674;48.048;8.306;2023-04-25T04:12:41;3.80;99.90
75091;DHT22;63674;48.048;8.306;2023-04-25T04:15:10;3.70;99.90
75091;DHT22;63674;48.048;8.306;2023-04-25T04:17:39;3.60;99.90
75091;DHT22;63674;48.048;8.306;2023-04-25T04:20:09;3.40;99.90
75091;DHT22;63674;48.048;8.306;2023-04-25T04:22:38;3.40;99.90
75091;DHT22;63674;48.048;8.306;2023-04-25T04:25:07;3.40;99.90
75091;DHT22;63674;48.048;8.306;2023-04-25T04:27:37;3.30;99.90
75091;DHT22;63674;48.048;8.306;2023-04-25T04:30:08;3.20;99.90
75091;DHT22;63674;48.048;8.306;2023-04-25T04:32:37;3.20;99.90
75091;DHT22;63674;48.048;8.306;2023-04-25T04:35:07;3.00;99.90
75091;DHT22;63674;48.048;8.306;2023-04-25T04:37:38;3.10;99.90
75091;DHT22;63674;48.048;8.306;2023-04-25T04:40:07;3.10;99.90
75091;DHT22;63674;48.048;8.306;2023-04-25T04:42:36;3.00;99.90
75091;DHT22;63674;48.048;8.306;2023-04-25T04:45:07;3.00;99.90
75091;DHT22;63674;48.048;8.306;2023-04-25T04:47:36;3.10;99.90
75091;DHT22;63674;48.048;8.306;2023-04-25T04:50:07;3.00;99.90
75091;DHT22;63674;48.048;8.306;2023-04-25T04:52:37;2.90;99.90
75091;DHT22;63674;48.048;8.306;2023-04-25T04:55:07;2.90;99.90
75091;DHT22;63674;48.048;8.306;2023-04-25T04:57:37;3.00;99.90
75091;DHT22;63674;48.048;8.306;2023-04-25T05:00:09;3.10;99.90
75091;DHT22;63674;48.048;8.306;2023-04-25T05:02:39;3.10;99.90
75091;DHT22;63674;48.048;8.306;2023-04-25T05:05:08;3.10;99.90
75091;DHT22;63674;48.048;8.306;2023-04-25T05:07:37;3.00;99.90
75091;DHT22;63674;48.048;8.306;2023-04-25T05:10:07;3.00;99.90
75091;DHT22;63674;48.048;8.306;2023-04-25T05:12:36;3.00;99.90
75091;DHT22;63674;48.048;8.306;2023-04-25T05:15:07;3.10;99.90
75091;DHT22;63674;48.048;8.306;2023-04-25T05:17:36;3.10;99.90
75091;DHT22;63674;48.048;8.306;2023-04-25T05:20:07;3.20;99.90
75091;DHT22;63674;48.048;8.306;2023-04-25T05:22:36;3.10;99.90
75091;DHT22;63674;48.048;8.306;2023-04-25T05:25:05;3.20;99.90
75091;DHT22;63674;48.048;8.306;2023-04-25T05:27:34;3.10;99.90
75091;DHT22;63674;48.048;8.306;2023-04-25T05:30:03;3.10;99.90
75091;DHT22;63674;48.048;8.306;2023-04-25T05:32:34;3.20;99.90
75091;DHT22;63674;48.048;8.306;2023-04-25T05:35:03;3.30;99.90
75091;DHT22;63674;48.048;8.306;2023-04-25T05:37:33;3.40;99.90
75091;DHT22;63674;48.048;8.306;2023-04-25T05:40:03;3.40;99.90
75091;DHT22;63674;48.048;8.306;2023-04-25T05:42:33;3.50;99.90
75091;DHT22;63674;48.048;8.306;2023-04-25T05:45:03;3.60;99.90
75091;DHT22;63674;48.048;8.306;2023-04-25T05:47:33;3.70;99.90
75091;DHT22;63674;48.048;8.306;2023-04-25T05:50:03;3.70;99.90
75091;DHT22;63674;48.048;8.306;2023-04-25T05:52:32;3.80;99.90
75091;DHT22;63674;48.048;8.306;2023-04-25T05:55:01;3.90;99.90
75091;DHT22;63674;48.048;8.306;2023-04-25T05:57:30;4.00;99.90
75091;DHT22;63674;48.048;8.306;2023-04-25T05:59:58;4.00;99.90
75091;DHT22;63674;48.048;8.306;2023-04-25T06:02:49;4.00;99.90
75091;DHT22;63674;48.048;8.306;2023-04-25T06:05:18;4.00;99.90
75091;DHT22;63674;48.048;8.306;2023-04-25T06:07:47;4.10;99.90
75091;DHT22;63674;48.048;8.306;2023-04-25T06:10:15;4.10;99.90
75091;DHT22;63674;48.048;8.306;2023-04-25T06:12:44;4.10;99.90
75091;DHT22;63674;48.048;8.306;2023-04-25T06:15:13;4.20;99.90
75091;DHT22;63674;48.048;8.306;2023-04-25T06:17:56;4.20;99.90
75091;DHT22;63674;48.048;8.306;2023-04-25T06:20:25;4.20;99.90
75091;DHT22;63674;48.048;8.306;2023-04-25T06:22:53;4.30;99.90
75091;DHT22;63674;48.048;8.306;2023-04-25T06:25:22;4.30;99.90
75091;DHT22;63674;48.048;8.306;2023-04-25T06:27:50;4.30;99.90
75091;DHT22;63674;48.048;8.306;2023-04-25T06:30:19;4.30;99.90
75091;DHT22;63674;48.048;8.306;2023-04-25T06:32:52;4.30;99.90
75091;DHT22;63674;48.048;8.306;2023-04-25T06:35:22;4.30;99.90
75091;DHT22;63674;48.048;8.306;2023-04-25T06:37:50;4.20;99.90
75091;DHT22;63674;48.048;8.306;2023-04-25T06:40:19;4.20;99.90
75091;DHT22;63674;48.048;8.306;2023-04-25T06:42:48;4.20;99.90
75091;DHT22;63674;48.048;8.306;2023-04-25T06:45:16;4.20;99.90
75091;DHT22;63674;48.048;8.306;2023-04-25T06:47:45;4.20;99.90
75091;DHT22;63674;48.048;8.306;2023-04-25T06:50:13;4.20;99.90
75091;DHT22;63674;48.048;8.306;2023-04-25T06:52:43;4.20;99.90
75091;DHT22;63674;48.048;8.306;2023-04-25T06:55:12;4.20;99.90
75091;DHT22;63674;48.048;8.306;2023-04-25T06:57:40;4.20;99.90
75091;DHT22;63674;48.048;8.306;2023-04-25T07:00:09;4.10;99.90
75091;DHT22;63674;48.048;8.306;2023-04-25T07:02:59;4.10;99.90
75091;DHT22;63674;48.048;8.306;2023-04-25T07:05:29;4.00;99.90
75091;DHT22;63674;48.048;8.306;2023-04-25T07:07:59;3.90;99.90
75091;DHT22;63674;48.048;8.306;2023-04-25T07:10:29;3.80;99.90
75091;DHT22;63674;48.048;8.306;2023-04-25T07:12:58;3.70;99.90
75091;DHT22;63674;48.048;8.306;2023-04-25T07:15:27;3.70;99.90
75091;DHT22;63674;48.048;8.306;2023-04-25T07:17:55;3.60;99.90
75091;DHT22;63674;48.048;8.306;2023-04-25T07:20:24;3.40;99.90
75091;DHT22;63674;48.048;8.306;2023-04-25T07:23:16;3.20;99.90
75091;DHT22;63674;48.048;8.306;2023-04-25T07:25:45;3.10;99.90
75091;DHT22;63674;48.048;8.306;2023-04-25T07:28:14;3.00;99.90
75091;DHT22;63674;48.048;8.306;2023-04-25T07:30:45;3.00;99.90
75091;DHT22;63674;48.048;8.306;2023-04-25T07:33:14;3.10;99.90
75091;DHT22;63674;48.048;8.306;2023-04-25T07:35:44;3.20;99.90
75091;DHT22;63674;48.048;8.306;2023-04-25T07:38:12;3.20;99.90
75091;DHT22;63674;48.048;8.306;2023-04-25T07:40:42;3.30;99.90
75091;DHT22;63674;48.048;8.306;2023-04-25T07:43:11;3.30;99.90
75091;DHT22;63674;48.048;8.306;2023-04-25T07:45:45;3.20;99.90
75091;DHT22;63674;48.048;8.306;2023-04-25T07:48:17;3.20;99.90
75091;DHT22;63674;48.048;8.306;2023-04-25T07:50:47;3.30;99.90
75091;DHT22;63674;48.048;8.306;2023-04-25T07:53:15;3.20;99.90
75091;DHT22;63674;48.048;8.306;2023-04-25T07:55:46;3.30;99.90
75091;DHT22;63674;48.048;8.306;2023-04-25T07:58:16;3.20;99.90
75091;DHT22;63674;48.048;8.306;2023-04-25T08:00:49;3.30;99.90
75091;DHT22;63674;48.048;8.306;2023-04-25T08:03:18;3.30;99.90
75091;DHT22;63674;48.048;8.306;2023-04-25T08:05:46;3.30;99.90
75091;DHT22;63674;48.048;8.306;2023-04-25T08:08:15;3.50;99.90
75091;DHT22;63674;48.048;8.306;2023-04-25T08:10:45;3.70;99.90
75091;DHT22;63674;48.048;8.306;2023-04-25T08:13:14;3.90;99.90
75091;DHT22;63674;48.048;8.306;2023-04-25T08:15:43;4.00;99.90
75091;DHT22;63674;48.048;8.306;2023-04-25T08:18:12;4.10;99.90
75091;DHT22;63674;48.048;8.306;2023-04-25T08:21:01;4.20;99.90
75091;DHT22;63674;48.048;8.306;2023-04-25T08:23:29;4.30;99.90
75091;DHT22;63674;48.048;8.306;2023-04-25T08:26:00;4.40;99.90
75091;DHT22;63674;48.048;8.306;2023-04-25T08:28:29;4.40;99.90
75091;DHT22;63674;48.048;8.306;2023-04-25T08:30:57;4.50;99.90
75091;DHT22;63674;48.048;8.306;2023-04-25T08:33:26;4.50;99.90
75091;DHT22;63674;48.048;8.306;2023-04-25T08:35:55;4.50;99.90
75091;DHT22;63674;48.048;8.306;2023-04-25T08:38:45;4.60;99.90
75091;DHT22;63674;48.048;8.306;2023-04-25T08:41:15;4.80;99.90
75091;DHT22;63674;48.048;8.306;2023-04-25T08:43:45;4.90;99.90
75091;DHT22;63674;48.048;8.306;2023-04-25T08:46:18;4.90;99.90
75091;DHT22;63674;48.048;8.306;2023-04-25T08:48:49;4.90;99.90
75091;DHT22;63674;48.048;8.306;2023-04-25T08:51:45;4.90;99.90
75091;DHT22;63674;48.048;8.306;2023-04-25T08:54:15;4.80;99.90
75091;DHT22;63674;48.048;8.306;2023-04-25T08:57:05;4.70;99.90
75091;DHT22;63674;48.048;8.306;2023-04-25T08:59:36;4.70;99.90
75091;DHT22;63674;48.048;8.306;2023-04-25T09:02:05;4.80;99.90
75091;DHT22;63674;48.048;8.306;2023-04-25T09:04:36;5.00;99.90
75091;DHT22;63674;48.048;8.306;2023-04-25T09:07:04;5.00;99.90
75091;DHT22;63674;48.048;8.306;2023-04-25T09:09:33;5.00;99.90
75091;DHT22;63674;48.048;8.306;2023-04-25T09:12:02;4.90;99.90
75091;DHT22;63674;48.048;8.306;2023-04-25T09:14:32;4.90;99.90
75091;DHT22;63674;48.048;8.306;2023-04-25T09:17:03;5.00;99.90
75091;DHT22;63674;48.048;8.306;2023-04-25T09:19:36;5.20;99.90
75091;DHT22;63674;48.048;8.306;2023-04-25T09:22:08;5.40;99.90
75091;DHT22;63674;48.048;8.306;2023-04-25T09:24:39;5.50;99.90
75091;DHT22;63674;48.048;8.306;2023-04-25T09:27:10;5.70;99.90
75091;DHT22;63674;48.048;8.306;2023-04-25T09:29:41;5.60;99.90
75091;DHT22;63674;48.048;8.306;2023-04-25T09:32:18;5.60;99.90
75091;DHT22;63674;48.048;8.306;2023-04-25T09:34:49;5.60;99.90
75091;DHT22;63674;48.048;8.306;2023-04-25T09:37:19;5.60;99.90
75091;DHT22;63674;48.048;8.306;2023-04-25T09:39:50;5.60;99.90
75091;DHT22;63674;48.048;8.306;2023-04-25T09:42:22;5.80;99.90
75091;DHT22;63674;48.048;8.306;2023-04-25T09:44:54;5.90;99.90
75091;DHT22;63674;48.048;8.306;2023-04-25T09:47:25;6.30;99.90
75091;DHT22;63674;48.048;8.306;2023-04-25T09:49:55;6.50;99.90
75091;DHT22;63674;48.048;8.306;2023-04-25T09:52:24;6.70;99.90
75091;DHT22;63674;48.048;8.306;2023-04-25T09:54:53;6.60;99.90
75091;DHT22;63674;48.048;8.306;2023-04-25T09:57:23;6.60;99.90
75091;DHT22;63674;48.048;8.306;2023-04-25T09:59:55;6.60;99.90
75091;DHT22;63674;48.048;8.306;2023-04-25T10:02:25;7.00;99.90
75091;DHT22;63674;48.048;8.306;2023-04-25T10:04:55;7.10;99.90
75091;DHT22;63674;48.048;8.306;2023-04-25T10:07:25;7.10;99.90
75091;DHT22;63674;48.048;8.306;2023-04-25T10:09:59;7.20;99.90
75091;DHT22;63674;48.048;8.306;2023-04-25T10:12:29;7.40;99.90
75091;DHT22;63674;48.048;8.306;2023-04-25T10:15:00;7.40;99.90
75091;DHT22;63674;48.048;8.306;2023-04-25T10:17:32;7.40;99.90
75091;DHT22;63674;48.048;8.306;2023-04-25T10:20:02;7.50;99.90
75091;DHT22;63674;48.048;8.306;2023-04-25T10:22:34;7.50;99.90
75091;DHT22;63674;48.048;8.306;2023-04-25T10:25:05;7.60;99.90
75091;DHT22;63674;48.048;8.306;2023-04-25T10:27:35;7.70;99.90
75091;DHT22;63674;48.048;8.306;2023-04-25T10:30:08;7.60;99.90
75091;DHT22;63674;48.048;8.306;2023-04-25T10:32:39;7.50;99.90
75091;DHT22;63674;48.048;8.306;2023-04-25T10:35:14;7.10;99.90
75091;DHT22;63674;48.048;8.306;2023-04-25T10:38:00;7.00;99.90
75091;DHT22;63674;48.048;8.306;2023-04-25T10:40:32;6.80;99.90
75091;DHT22;63674;48.048;8.306;2023-04-25T10:46:21;6.50;99.90
75091;DHT22;63674;48.048;8.306;2023-04-25T10:48:52;6.50;99.90
75091;DHT22;63674;48.048;8.306;2023-04-25T10:51:22;6.40;99.90
75091;DHT22;63674;48.048;8.306;2023-04-25T10:53:59;6.40;99.90
75091;DHT22;63674;48.048;8.306;2023-04-25T10:56:30;7.10;99.90
75091;DHT22;63674;48.048;8.306;2023-04-25T10:59:06;6.40;99.90
75091;DHT22;63674;48.048;8.306;2023-04-25T11:01:42;6.40;99.90
75091;DHT22;63674;48.048;8.306;2023-04-25T11:04:22;6.40;99.90
75091;DHT22;63674;48.048;8.306;2023-04-25T11:07:01;6.30;99.90
75091;DHT22;63674;48.048;8.306;2023-04-25T11:09:35;6.40;99.90
75091;DHT22;63674;48.048;8.306;2023-04-25T11:12:05;6.50;99.90
75091;DHT22;63674;48.048;8.306;2023-04-25T11:14:36;6.80;99.90
75091;DHT22;63674;48.048;8.306;2023-04-25T11:17:11;6.90;99.90
75091;DHT22;63674;48.048;8.306;2023-04-25T11:19:40;6.90;99.90
75091;DHT22;63674;48.048;8.306;2023-04-25T11:22:10;6.90;99.90
75091;DHT22;63674;48.048;8.306;2023-04-25T11:24:39;7.20;99.90
75091;DHT22;63674;48.048;8.306;2023-04-25T11:27:08;7.60;99.90
75091;DHT22;63674;48.048;8.306;2023-04-25T11:29:37;7.90;99.90
75091;DHT22;63674;48.048;8.306;2023-04-25T11:32:05;8.20;99.90
75091;DHT22;63674;48.048;8.306;2023-04-25T11:34:35;8.50;99.90
75091;DHT22;63674;48.048;8.306;2023-04-25T11:37:04;8.70;99.90
75091;DHT22;63674;48.048;8.306;2023-04-25T11:39:33;8.70;99.90
75091;DHT22;63674;48.048;8.306;2023-04-25T11:42:04;8.60;99.90
75091;DHT22;63674;48.048;8.306;2023-04-25T11:44:39;8.50;99.90
75091;DHT22;63674;48.048;8.306;2023-04-25T11:47:08;8.50;99.90
75091;DHT22;63674;48.048;8.306;2023-04-25T11:49:38;8.30;99.90
75091;DHT22;63674;48.048;8.306;2023-04-25T11:52:07;8.10;99.90
75091;DHT22;63674;48.048;8.306;2023-04-25T11:54:36;8.00;99.90
75091;DHT22;63674;48.048;8.306;2023-04-25T11:57:05;8.20;99.90
75091;DHT22;63674;48.048;8.306;2023-04-25T11:59:33;8.50;99.90
75091;DHT22;63674;48.048;8.306;2023-04-25T12:02:02;8.60;99.90
75091;DHT22;63674;48.048;8.306;2023-04-25T12:04:31;8.90;99.90
75091;DHT22;63674;48.048;8.306;2023-04-25T12:07:02;9.00;99.90
75091;DHT22;63674;48.048;8.306;2023-04-25T12:09:31;8.80;99.90
75091;DHT22;63674;48.048;8.306;2023-04-25T12:12:01;8.70;99.90
75091;DHT22;63674;48.048;8.306;2023-04-25T12:14:32;8.50;99.90
75091;DHT22;63674;48.048;8.306;2023-04-25T12:17:03;8.40;99.90
75091;DHT22;63674;48.048;8.306;2023-04-25T12:19:36;8.30;99.90
75091;DHT22;63674;48.048;8.306;2023-04-25T12:22:21;8.10;99.90
75091;DHT22;63674;48.048;8.306;2023-04-25T12:24:51;8.10;99.90
75091;DHT22;63674;48.048;8.306;2023-04-25T12:27:20;8.00;99.90
75091;DHT22;63674;48.048;8.306;2023-04-25T12:29:53;8.00;99.90
75091;DHT22;63674;48.048;8.306;2023-04-25T12:32:23;8.30;99.90
75091;DHT22;63674;48.048;8.306;2023-04-25T12:34:52;8.50;99.90
75091;DHT22;63674;48.048;8.306;2023-04-25T12:37:22;8.70;99.90
75091;DHT22;63674;48.048;8.306;2023-04-25T12:39:50;8.80;99.90
75091;DHT22;63674;48.048;8.306;2023-04-25T12:42:19;8.70;99.90
75091;DHT22;63674;48.048;8.306;2023-04-25T12:44:47;8.70;99.90
75091;DHT22;63674;48.048;8.306;2023-04-25T12:47:16;8.90;99.90
75091;DHT22;63674;48.048;8.306;2023-04-25T12:49:45;9.30;99.90
75091;DHT22;63674;48.048;8.306;2023-04-25T12:52:13;9.60;99.90
75091;DHT22;63674;48.048;8.306;2023-04-25T12:54:43;10.00;99.90
75091;DHT22;63674;48.048;8.306;2023-04-25T12:57:12;10.10;99.90
75091;DHT22;63674;48.048;8.306;2023-04-25T12:59:40;10.20;99.90
75091;DHT22;63674;48.048;8.306;2023-04-25T13:02:09;10.00;99.90
75091;DHT22;63674;48.048;8.306;2023-04-25T13:04:38;9.60;99.90
75091;DHT22;63674;48.048;8.306;2023-04-25T13:07:06;9.40;99.90
75091;DHT22;63674;48.048;8.306;2023-04-25T13:09:35;9.10;99.90
75091;DHT22;63674;48.048;8.306;2023-04-25T13:12:05;9.20;99.90
75091;DHT22;63674;48.048;8.306;2023-04-25T13:14:34;9.10;99.90
75091;DHT22;63674;48.048;8.306;2023-04-25T13:17:03;9.00;99.90
75091;DHT22;63674;48.048;8.306;2023-04-25T13:19:32;8.70;99.90
75091;DHT22;63674;48.048;8.306;2023-04-25T13:22:00;8.50;99.90
75091;DHT22;63674;48.048;8.306;2023-04-25T13:24:31;8.30;99.90
75091;DHT22;63674;48.048;8.306;2023-04-25T13:26:59;8.10;99.90
75091;DHT22;63674;48.048;8.306;2023-04-25T13:29:30;7.90;99.90
75091;DHT22;63674;48.048;8.306;2023-04-25T13:31:58;7.70;99.90
75091;DHT22;63674;48.048;8.306;2023-04-25T13:34:28;7.50;99.90
75091;DHT22;63674;48.048;8.306;2023-04-25T13:36:57;7.50;99.90
75091;DHT22;63674;48.048;8.306;2023-04-25T13:39:28;7.40;99.90
75091;DHT22;63674;48.048;8.306;2023-04-25T13:41:57;7.40;99.90
75091;DHT22;63674;48.048;8.306;2023-04-25T13:44:25;7.30;99.90
75091;DHT22;63674;48.048;8.306;2023-04-25T13:46:56;7.20;99.90
75091;DHT22;63674;48.048;8.306;2023-04-25T13:49:25;6.90;99.90
75091;DHT22;63674;48.048;8.306;2023-04-25T13:51:53;6.70;99.90
75091;DHT22;63674;48.048;8.306;2023-04-25T13:54:22;6.60;99.90
75091;DHT22;63674;48.048;8.306;2023-04-25T13:56:50;6.50;99.90
75091;DHT22;63674;48.048;8.306;2023-04-25T13:59:22;6.50;99.90
75091;DHT22;63674;48.048;8.306;2023-04-25T14:01:50;6.50;99.90
75091;DHT22;63674;48.048;8.306;2023-04-25T14:04:21;6.60;99.90
75091;DHT22;63674;48.048;8.306;2023-04-25T14:06:50;6.60;99.90
75091;DHT22;63674;48.048;8.306;2023-04-25T14:09:19;6.50;99.90
75091;DHT22;63674;48.048;8.306;2023-04-25T14:11:52;6.50;99.90
75091;DHT22;63674;48.048;8.306;2023-04-25T14:14:22;6.40;99.90
75091;DHT22;63674;48.048;8.306;2023-04-25T14:16:51;6.40;99.90
75091;DHT22;63674;48.048;8.306;2023-04-25T14:19:22;6.30;99.90
75091;DHT22;63674;48.048;8.306;2023-04-25T14:21:51;6.30;99.90
75091;DHT22;63674;48.048;8.306;2023-04-25T14:24:20;6.50;99.90
75091;DHT22;63674;48.048;8.306;2023-04-25T14:26:48;6.60;99.90
75091;DHT22;63674;48.048;8.306;2023-04-25T14:29:17;6.60;99.90
75091;DHT22;63674;48.048;8.306;2023-04-25T14:31:45;6.60;99.90
75091;DHT22;63674;48.048;8.306;2023-04-25T14:34:15;6.50;99.90
75091;DHT22;63674;48.048;8.306;2023-04-25T14:36:44;6.50;99.90
75091;DHT22;63674;48.048;8.306;2023-04-25T14:39:13;6.60;99.90
75091;DHT22;63674;48.048;8.306;2023-04-25T14:41:42;6.80;99.90
75091;DHT22;63674;48.048;8.306;2023-04-25T14:44:10;6.80;99.90
75091;DHT22;63674;48.048;8.306;2023-04-25T14:46:39;6.90;99.90
75091;DHT22;63674;48.048;8.306;2023-04-25T14:49:07;6.80;99.90
75091;DHT22;63674;48.048;8.306;2023-04-25T14:51:36;6.80;99.90
75091;DHT22;63674;48.048;8.306;2023-04-25T14:54:06;6.90;99.90
75091;DHT22;63674;48.048;8.306;2023-04-25T14:56:34;7.10;99.90
75091;DHT22;63674;48.048;8.306;2023-04-25T14:59:03;7.20;99.90
75091;DHT22;63674;48.048;8.306;2023-04-25T15:01:31;7.10;99.90
75091;DHT22;63674;48.048;8.306;2023-04-25T15:04:00;7.20;99.90
75091;DHT22;63674;48.048;8.306;2023-04-25T15:06:29;7.30;99.90
75091;DHT22;63674;48.048;8.306;2023-04-25T15:08:57;7.40;99.90
75091;DHT22;63674;48.048;8.306;2023-04-25T15:11:27;7.60;99.90
75091;DHT22;63674;48.048;8.306;2023-04-25T15:13:55;7.70;99.90
75091;DHT22;63674;48.048;8.306;2023-04-25T15:16:24;7.60;99.90
75091;DHT22;63674;48.048;8.306;2023-04-25T15:18:53;7.50;99.90
75091;DHT22;63674;48.048;8.306;2023-04-25T15:21:21;7.60;99.90
75091;DHT22;63674;48.048;8.306;2023-04-25T15:23:50;7.90;99.90
75091;DHT22;63674;48.048;8.306;2023-04-25T15:26:19;8.20;99.90
75091;DHT22;63674;48.048;8.306;2023-04-25T15:28:49;8.30;99.90
75091;DHT22;63674;48.048;8.306;2023-04-25T15:31:19;8.40;99.90
75091;DHT22;63674;48.048;8.306;2023-04-25T15:33:48;8.40;99.90
75091;DHT22;63674;48.048;8.306;2023-04-25T15:36:17;8.40;99.90
75091;DHT22;63674;48.048;8.306;2023-04-25T15:38:47;8.30;99.90
75091;DHT22;63674;48.048;8.306;2023-04-25T15:41:17;8.20;99.90
75091;DHT22;63674;48.048;8.306;2023-04-25T15:43:48;7.90;99.90
75091;DHT22;63674;48.048;8.306;2023-04-25T15:46:17;7.90;99.90
75091;DHT22;63674;48.048;8.306;2023-04-25T15:48:45;7.80;99.90
75091;DHT22;63674;48.048;8.306;2023-04-25T15:51:14;7.60;99.90
75091;DHT22;63674;48.048;8.306;2023-04-25T15:53:43;7.50;99.90
75091;DHT22;63674;48.048;8.306;2023-04-25T15:56:13;7.40;99.90
75091;DHT22;63674;48.048;8.306;2023-04-25T15:58:41;7.40;99.90
75091;DHT22;63674;48.048;8.306;2023-04-25T16:01:11;7.40;99.90
75091;DHT22;63674;48.048;8.306;2023-04-25T16:03:40;7.30;99.90
75091;DHT22;63674;48.048;8.306;2023-04-25T16:06:08;7.40;99.90